sensor_id;sensor_type;location;lat;lon;timestamp;temperature;humidity
40534;DHT22;26233;51.894;10.192;2024-02-16T00:00:07;15.80;53.10
40534;DHT22;26233;51.894;10.192;2024-02-16T00:02:41;15.90;53.20
40534;DHT22;26233;51.894;10.192;2024-02-16T00:05:10;15.90;53.10
40534;DHT22;26233;51.894;10.192;2024-02-16T00:07:38;15.90;53.00
40534;DHT22;26233;51.894;10.192;2024-02-16T00:10:07;15.90;53.00
40534;DHT22;26233;51.894;10.192;2024-02-16T00:12:35;15.90;52.70
40534;DHT22;26233;51.894;10.192;2024-02-16T00:15:04;15.90;52.80
40534;DHT22;26233;51.894;10.192;2024-02-16T00:17:32;15.90;52.70
40534;DHT22;26233;51.894;10.192;2024-02-16T00:20:01;15.90;52.60
40534;DHT22;26233;51.894;10.192;2024-02-16T00:22:28;15.90;52.60
40534;DHT22;26233;51.894;10.192;2024-02-16T00:24:56;15.90;52.60
40534;DHT22;26233;51.894;10.192;2024-02-16T00:27:23;15.90;52.40
40534;DHT22;26233;51.894;10.192;2024-02-16T00:29:50;15.90;52.50
40534;DHT22;26233;51.894;10.192;2024-02-16T00:32:17;15.90;52.40
40534;DHT22;26233;51.894;10.192;2024-02-16T00:34:45;15.90;52.30
40534;DHT22;26233;51.894;10.192;2024-02-16T00:37:13;15.90;52.40
40534;DHT22;26233;51.894;10.192;2024-02-16T00:39:41;15.90;52.30
40534;DHT22;26233;51.894;10.192;2024-02-16T00:42:08;15.90;52.30
40534;DHT22;26233;51.894;10.192;2024-02-16T00:44:36;15.80;52.20
40534;DHT22;26233;51.894;10.192;2024-02-16T00:47:04;15.80;52.20
40534;DHT22;26233;51.894;10.192;2024-02-16T00:49:32;15.80;52.20
40534;DHT22;26233;51.894;10.192;2024-02-16T00:51:59;15.80;52.20
40534;DHT22;26233;51.894;10.192;2024-02-16T00:54:29;15.80;52.10
40534;DHT22;26233;51.894;10.192;2024-02-16T00:56:56;15.80;51.80
40534;DHT22;26233;51.894;10.192;2024-02-16T00:59:28;15.80;52.00
40534;DHT22;26233;51.894;10.192;2024-02-16T01:01:55;15.70;51.90
40534;DHT22;26233;51.894;10.192;2024-02-16T01:04:22;15.80;51.90
40534;DHT22;26233;51.894;10.192;2024-02-16T01:06:49;15.70;51.80
40534;DHT22;26233;51.894;10.192;2024-02-16T01:09:17;15.70;51.90
40534;DHT22;26233;51.894;10.192;2024-02-16T01:11:45;15.70;51.80
40534;DHT22;26233;51.894;10.192;2024-02-16T01:14:14;15.70;51.80
40534;DHT22;26233;51.894;10.192;2024-02-16T01:16:41;15.70;51.90
40534;DHT22;26233;51.894;10.192;2024-02-16T01:19:08;15.60;51.70
40534;DHT22;26233;51.894;10.192;2024-02-16T01:21:35;15.60;51.70
40534;DHT22;26233;51.894;10.192;2024-02-16T01:24:03;15.60;51.80
40534;DHT22;26233;51.894;10.192;2024-02-16T01:26:31;15.60;51.70
40534;DHT22;26233;51.894;10.192;2024-02-16T01:28:59;15.60;51.70
40534;DHT22;26233;51.894;10.192;2024-02-16T01:31:28;15.60;51.50
40534;DHT22;26233;51.894;10.192;2024-02-16T01:33:55;15.60;51.50
40534;DHT22;26233;51.894;10.192;2024-02-16T01:36:22;15.60;51.50
40534;DHT22;26233;51.894;10.192;2024-02-16T01:38:49;15.60;51.50
40534;DHT22;26233;51.894;10.192;2024-02-16T01:41:16;15.60;51.30
40534;DHT22;26233;51.894;10.192;2024-02-16T01:43:44;15.60;51.50
40534;DHT22;26233;51.894;10.192;2024-02-16T01:46:12;15.60;51.40
40534;DHT22;26233;51.894;10.192;2024-02-16T01:48:39;15.60;51.40
40534;DHT22;26233;51.894;10.192;2024-02-16T01:51:08;15.70;51.50
40534;DHT22;26233;51.894;10.192;2024-02-16T01:53:36;15.70;51.40
40534;DHT22;26233;51.894;10.192;2024-02-16T01:56:03;15.70;51.40
40534;DHT22;26233;51.894;10.192;2024-02-16T01:58:31;15.70;51.40
40534;DHT22;26233;51.894;10.192;2024-02-16T02:00:58;15.70;51.20
40534;DHT22;26233;51.894;10.192;2024-02-16T02:03:27;15.70;51.20
40534;DHT22;26233;51.894;10.192;2024-02-16T02:05:55;15.70;51.20
40534;DHT22;26233;51.894;10.192;2024-02-16T02:08:22;15.70;51.10
40534;DHT22;26233;51.894;10.192;2024-02-16T02:10:50;15.70;51.20
40534;DHT22;26233;51.894;10.192;2024-02-16T02:13:17;15.70;51.10
40534;DHT22;26233;51.894;10.192;2024-02-16T02:15:47;15.70;51.00
40534;DHT22;26233;51.894;10.192;2024-02-16T02:18:14;15.70;51.10
40534;DHT22;26233;51.894;10.192;2024-02-16T02:20:43;15.70;50.90
40534;DHT22;26233;51.894;10.192;2024-02-16T02:23:12;15.70;51.00
40534;DHT22;26233;51.894;10.192;2024-02-16T02:25:39;15.70;51.10
40534;DHT22;26233;51.894;10.192;2024-02-16T02:28:06;15.70;51.00
40534;DHT22;26233;51.894;10.192;2024-02-16T02:30:34;15.60;50.80
40534;DHT22;26233;51.894;10.192;2024-02-16T02:33:01;15.70;50.90
40534;DHT22;26233;51.894;10.192;2024-02-16T02:35:28;15.70;51.00
40534;DHT22;26233;51.894;10.192;2024-02-16T02:37:55;15.70;50.90
40534;DHT22;26233;51.894;10.192;2024-02-16T02:40:24;15.60;50.80
40534;DHT22;26233;51.894;10.192;2024-02-16T02:42:51;15.70;50.70
40534;DHT22;26233;51.894;10.192;2024-02-16T02:45:19;15.70;50.80
40534;DHT22;26233;51.894;10.192;2024-02-16T02:47:46;15.70;50.80
40534;DHT22;26233;51.894;10.192;2024-02-16T02:50:13;15.60;50.70
40534;DHT22;26233;51.894;10.192;2024-02-16T02:52:41;15.70;50.50
40534;DHT22;26233;51.894;10.192;2024-02-16T02:55:10;15.70;50.60
40534;DHT22;26233;51.894;10.192;2024-02-16T02:57:39;15.70;50.30
40534;DHT22;26233;51.894;10.192;2024-02-16T03:00:07;15.70;50.50
40534;DHT22;26233;51.894;10.192;2024-02-16T03:02:36;15.70;50.50
40534;DHT22;26233;51.894;10.192;2024-02-16T03:05:05;15.70;50.40
40534;DHT22;26233;51.894;10.192;2024-02-16T03:07:33;15.70;50.40
40534;DHT22;26233;51.894;10.192;2024-02-16T03:10:01;15.70;50.40
40534;DHT22;26233;51.894;10.192;2024-02-16T03:12:29;15.70;50.40
40534;DHT22;26233;51.894;10.192;2024-02-16T03:14:57;15.70;50.40
40534;DHT22;26233;51.894;10.192;2024-02-16T03:17:24;15.70;50.20
40534;DHT22;26233;51.894;10.192;2024-02-16T03:19:52;15.70;50.20
40534;DHT22;26233;51.894;10.192;2024-02-16T03:22:20;15.70;50.30
40534;DHT22;26233;51.894;10.192;2024-02-16T03:24:47;15.70;50.20
40534;DHT22;26233;51.894;10.192;2024-02-16T03:27:14;15.70;50.20
40534;DHT22;26233;51.894;10.192;2024-02-16T03:29:42;15.70;50.20
40534;DHT22;26233;51.894;10.192;2024-02-16T03:32:10;15.70;50.20
40534;DHT22;26233;51.894;10.192;2024-02-16T03:34:37;15.70;50.10
40534;DHT22;26233;51.894;10.192;2024-02-16T03:37:05;15.80;50.30
40534;DHT22;26233;51.894;10.192;2024-02-16T03:39:32;15.80;50.20
40534;DHT22;26233;51.894;10.192;2024-02-16T03:41:59;15.80;50.20
40534;DHT22;26233;51.894;10.192;2024-02-16T03:44:26;15.80;50.10
40534;DHT22;26233;51.894;10.192;2024-02-16T03:46:53;15.80;50.10
40534;DHT22;26233;51.894;10.192;2024-02-16T03:49:22;15.80;50.00
40534;DHT22;26233;51.894;10.192;2024-02-16T03:51:49;15.70;49.90
40534;DHT22;26233;51.894;10.192;2024-02-16T03:54:16;15.80;50.00
40534;DHT22;26233;51.894;10.192;2024-02-16T03:56:43;15.80;49.90
40534;DHT22;26233;51.894;10.192;2024-02-16T03:59:11;15.80;49.90
40534;DHT22;26233;51.894;10.192;2024-02-16T04:01:38;15.70;49.70
40534;DHT22;26233;51.894;10.192;2024-02-16T04:04:07;15.80;49.90
40534;DHT22;26233;51.894;10.192;2024-02-16T04:06:36;15.80;49.90
40534;DHT22;26233;51.894;10.192;2024-02-16T04:09:03;15.80;49.80
40534;DHT22;26233;51.894;10.192;2024-02-16T04:11:31;15.80;49.80
40534;DHT22;26233;51.894;10.192;2024-02-16T04:13:59;15.80;49.70
40534;DHT22;26233;51.894;10.192;2024-02-16T04:16:26;15.80;49.80
40534;DHT22;26233;51.894;10.192;2024-02-16T04:18:53;15.80;50.30
40534;DHT22;26233;51.894;10.192;2024-02-16T04:21:21;15.80;49.60
40534;DHT22;26233;51.894;10.192;2024-02-16T04:23:49;15.80;49.70
40534;DHT22;26233;51.894;10.192;2024-02-16T04:26:16;15.80;49.60
40534;DHT22;26233;51.894;10.192;2024-02-16T04:28:44;15.80;49.50
40534;DHT22;26233;51.894;10.192;2024-02-16T04:31:11;15.80;49.60
40534;DHT22;26233;51.894;10.192;2024-02-16T04:33:38;15.80;49.60
40534;DHT22;26233;51.894;10.192;2024-02-16T04:36:06;15.80;49.70
40534;DHT22;26233;51.894;10.192;2024-02-16T04:38:34;15.80;49.60
40534;DHT22;26233;51.894;10.192;2024-02-16T04:41:05;15.70;49.50
40534;DHT22;26233;51.894;10.192;2024-02-16T04:43:32;15.70;49.40
40534;DHT22;26233;51.894;10.192;2024-02-16T04:45:59;15.70;49.50
40534;DHT22;26233;51.894;10.192;2024-02-16T04:48:27;15.70;49.50
40534;DHT22;26233;51.894;10.192;2024-02-16T04:50:54;15.70;49.50
40534;DHT22;26233;51.894;10.192;2024-02-16T04:53:21;15.70;49.60
40534;DHT22;26233;51.894;10.192;2024-02-16T04:55:49;15.70;49.50
40534;DHT22;26233;51.894;10.192;2024-02-16T04:58:17;15.70;49.50
40534;DHT22;26233;51.894;10.192;2024-02-16T05:00:44;15.60;49.30
40534;DHT22;26233;51.894;10.192;2024-02-16T05:03:13;15.60;49.50
40534;DHT22;26233;51.894;10.192;2024-02-16T05:05:41;15.60;49.50
40534;DHT22;26233;51.894;10.192;2024-02-16T05:08:09;15.60;49.40
40534;DHT22;26233;51.894;10.192;2024-02-16T05:10:37;15.50;49.30
40534;DHT22;26233;51.894;10.192;2024-02-16T05:13:04;15.60;49.50
40534;DHT22;26233;51.894;10.192;2024-02-16T05:15:33;15.60;49.40
40534;DHT22;26233;51.894;10.192;2024-02-16T05:18:00;15.50;49.20
40534;DHT22;26233;51.894;10.192;2024-02-16T05:20:27;15.50;49.30
40534;DHT22;26233;51.894;10.192;2024-02-16T05:22:54;15.50;49.40
40534;DHT22;26233;51.894;10.192;2024-02-16T05:25:22;15.50;49.30
40534;DHT22;26233;51.894;10.192;2024-02-16T05:27:49;15.50;49.40
40534;DHT22;26233;51.894;10.192;2024-02-16T05:30:17;15.50;49.30
40534;DHT22;26233;51.894;10.192;2024-02-16T05:32:46;15.50;49.20
40534;DHT22;26233;51.894;10.192;2024-02-16T05:35:14;15.50;49.20
40534;DHT22;26233;51.894;10.192;2024-02-16T05:37:43;15.50;49.30
40534;DHT22;26233;51.894;10.192;2024-02-16T05:40:13;15.60;49.30
40534;DHT22;26233;51.894;10.192;2024-02-16T05:42:47;15.50;49.30
40534;DHT22;26233;51.894;10.192;2024-02-16T05:45:15;15.50;49.30
40534;DHT22;26233;51.894;10.192;2024-02-16T05:47:43;15.50;49.20
40534;DHT22;26233;51.894;10.192;2024-02-16T05:50:13;15.50;49.30
40534;DHT22;26233;51.894;10.192;2024-02-16T05:52:41;15.50;49.30
40534;DHT22;26233;51.894;10.192;2024-02-16T05:55:10;15.40;49.20
40534;DHT22;26233;51.894;10.192;2024-02-16T05:57:38;15.40;49.30
40534;DHT22;26233;51.894;10.192;2024-02-16T06:00:07;15.40;49.30
40534;DHT22;26233;51.894;10.192;2024-02-16T06:02:35;15.40;49.30
40534;DHT22;26233;51.894;10.192;2024-02-16T06:05:02;15.40;49.30
40534;DHT22;26233;51.894;10.192;2024-02-16T06:07:32;15.30;49.30
40534;DHT22;26233;51.894;10.192;2024-02-16T06:09:59;15.40;49.40
40534;DHT22;26233;51.894;10.192;2024-02-16T06:12:30;15.30;49.30
40534;DHT22;26233;51.894;10.192;2024-02-16T06:14:57;15.30;49.20
40534;DHT22;26233;51.894;10.192;2024-02-16T06:17:25;15.30;49.30
40534;DHT22;26233;51.894;10.192;2024-02-16T06:19:53;15.30;49.30
40534;DHT22;26233;51.894;10.192;2024-02-16T06:22:20;15.40;49.40
40534;DHT22;26233;51.894;10.192;2024-02-16T06:24:48;15.40;49.30
40534;DHT22;26233;51.894;10.192;2024-02-16T06:27:16;15.30;49.20
40534;DHT22;26233;51.894;10.192;2024-02-16T06:29:43;15.30;49.30
40534;DHT22;26233;51.894;10.192;2024-02-16T06:32:10;15.30;49.30
40534;DHT22;26233;51.894;10.192;2024-02-16T06:34:38;15.40;49.30
40534;DHT22;26233;51.894;10.192;2024-02-16T06:37:05;15.40;49.30
40534;DHT22;26233;51.894;10.192;2024-02-16T06:39:32;15.30;49.20
40534;DHT22;26233;51.894;10.192;2024-02-16T06:42:01;15.30;49.20
40534;DHT22;26233;51.894;10.192;2024-02-16T06:44:29;15.30;49.20
40534;DHT22;26233;51.894;10.192;2024-02-16T06:46:56;15.40;49.30
40534;DHT22;26233;51.894;10.192;2024-02-16T06:49:23;15.30;49.30
40534;DHT22;26233;51.894;10.192;2024-02-16T06:51:51;15.30;49.20
40534;DHT22;26233;51.894;10.192;2024-02-16T06:54:18;15.30;49.20
40534;DHT22;26233;51.894;10.192;2024-02-16T06:56:45;15.40;49.20
40534;DHT22;26233;51.894;10.192;2024-02-16T06:59:14;15.40;49.20
40534;DHT22;26233;51.894;10.192;2024-02-16T07:01:42;15.40;49.20
40534;DHT22;26233;51.894;10.192;2024-02-16T07:04:09;15.40;49.20
40534;DHT22;26233;51.894;10.192;2024-02-16T07:06:36;15.40;49.30
40534;DHT22;26233;51.894;10.192;2024-02-16T07:09:04;15.40;49.20
40534;DHT22;26233;51.894;10.192;2024-02-16T07:11:31;15.40;49.20
40534;DHT22;26233;51.894;10.192;2024-02-16T07:14:00;15.40;49.20
40534;DHT22;26233;51.894;10.192;2024-02-16T07:16:29;15.40;49.20
40534;DHT22;26233;51.894;10.192;2024-02-16T07:18:58;15.40;49.10
40534;DHT22;26233;51.894;10.192;2024-02-16T07:21:25;15.40;49.20
40534;DHT22;26233;51.894;10.192;2024-02-16T07:23:52;15.50;49.20
40534;DHT22;26233;51.894;10.192;2024-02-16T07:26:20;15.40;49.10
40534;DHT22;26233;51.894;10.192;2024-02-16T07:28:47;15.50;49.20
40534;DHT22;26233;51.894;10.192;2024-02-16T07:31:15;15.50;49.20
40534;DHT22;26233;51.894;10.192;2024-02-16T07:33:43;15.50;49.20
40534;DHT22;26233;51.894;10.192;2024-02-16T07:36:11;15.50;49.10
40534;DHT22;26233;51.894;10.192;2024-02-16T07:38:39;15.60;49.20
40534;DHT22;26233;51.894;10.192;2024-02-16T07:41:06;15.60;49.90
40534;DHT22;26233;51.894;10.192;2024-02-16T07:43:34;15.70;49.40
40534;DHT22;26233;51.894;10.192;2024-02-16T07:46:02;15.70;49.20
40534;DHT22;26233;51.894;10.192;2024-02-16T07:48:30;15.80;49.20
40534;DHT22;26233;51.894;10.192;2024-02-16T07:50:59;15.80;49.10
40534;DHT22;26233;51.894;10.192;2024-02-16T07:53:28;15.90;49.20
40534;DHT22;26233;51.894;10.192;2024-02-16T07:55:55;15.90;49.10
40534;DHT22;26233;51.894;10.192;2024-02-16T07:58:24;15.90;49.10
40534;DHT22;26233;51.894;10.192;2024-02-16T08:00:51;15.90;49.00
40534;DHT22;26233;51.894;10.192;2024-02-16T08:03:20;16.00;49.20
40534;DHT22;26233;51.894;10.192;2024-02-16T08:05:47;16.00;49.30
40534;DHT22;26233;51.894;10.192;2024-02-16T08:08:15;16.10;49.30
40534;DHT22;26233;51.894;10.192;2024-02-16T08:10:43;16.10;49.20
40534;DHT22;26233;51.894;10.192;2024-02-16T08:13:10;16.20;49.20
40534;DHT22;26233;51.894;10.192;2024-02-16T08:15:37;16.20;49.30
40534;DHT22;26233;51.894;10.192;2024-02-16T08:18:05;16.30;49.20
40534;DHT22;26233;51.894;10.192;2024-02-16T08:20:32;16.30;49.20
40534;DHT22;26233;51.894;10.192;2024-02-16T08:22:59;16.40;49.20
40534;DHT22;26233;51.894;10.192;2024-02-16T08:25:28;16.40;49.70
40534;DHT22;26233;51.894;10.192;2024-02-16T08:27:56;16.40;49.10
40534;DHT22;26233;51.894;10.192;2024-02-16T08:30:23;16.50;49.20
40534;DHT22;26233;51.894;10.192;2024-02-16T08:32:51;16.60;49.10
40534;DHT22;26233;51.894;10.192;2024-02-16T08:35:19;16.60;48.90
40534;DHT22;26233;51.894;10.192;2024-02-16T08:37:46;16.60;48.90
40534;DHT22;26233;51.894;10.192;2024-02-16T08:40:13;16.60;48.90
40534;DHT22;26233;51.894;10.192;2024-02-16T08:42:42;16.70;49.00
40534;DHT22;26233;51.894;10.192;2024-02-16T08:45:09;16.70;48.90
40534;DHT22;26233;51.894;10.192;2024-02-16T08:47:38;16.70;48.80
40534;DHT22;26233;51.894;10.192;2024-02-16T08:50:06;16.70;48.80
40534;DHT22;26233;51.894;10.192;2024-02-16T08:52:34;16.80;48.90
40534;DHT22;26233;51.894;10.192;2024-02-16T08:55:01;16.80;48.80
40534;DHT22;26233;51.894;10.192;2024-02-16T08:57:28;16.80;48.80
40534;DHT22;26233;51.894;10.192;2024-02-16T08:59:56;16.90;49.00
40534;DHT22;26233;51.894;10.192;2024-02-16T09:02:23;16.90;48.90
40534;DHT22;26233;51.894;10.192;2024-02-16T09:04:50;16.90;48.90
40534;DHT22;26233;51.894;10.192;2024-02-16T09:07:18;17.00;48.90
40534;DHT22;26233;51.894;10.192;2024-02-16T09:09:45;17.10;48.70
40534;DHT22;26233;51.894;10.192;2024-02-16T09:12:12;17.00;48.50
40534;DHT22;26233;51.894;10.192;2024-02-16T09:14:39;17.10;48.50
40534;DHT22;26233;51.894;10.192;2024-02-16T09:17:08;17.10;48.50
40534;DHT22;26233;51.894;10.192;2024-02-16T09:19:35;17.10;48.30
40534;DHT22;26233;51.894;10.192;2024-02-16T09:22:03;17.10;48.60
40534;DHT22;26233;51.894;10.192;2024-02-16T09:24:32;17.00;48.10
40534;DHT22;26233;51.894;10.192;2024-02-16T09:26:59;17.10;48.40
40534;DHT22;26233;51.894;10.192;2024-02-16T09:29:31;17.10;48.40
40534;DHT22;26233;51.894;10.192;2024-02-16T09:31:58;17.10;48.40
40534;DHT22;26233;51.894;10.192;2024-02-16T09:34:27;17.10;48.40
40534;DHT22;26233;51.894;10.192;2024-02-16T09:36:54;17.10;48.30
40534;DHT22;26233;51.894;10.192;2024-02-16T09:39:21;17.10;48.40
40534;DHT22;26233;51.894;10.192;2024-02-16T09:41:50;17.10;48.40
40534;DHT22;26233;51.894;10.192;2024-02-16T09:44:18;17.20;49.10
40534;DHT22;26233;51.894;10.192;2024-02-16T09:46:51;17.30;49.20
40534;DHT22;26233;51.894;10.192;2024-02-16T09:49:19;17.40;48.90
40534;DHT22;26233;51.894;10.192;2024-02-16T09:51:48;17.50;48.70
40534;DHT22;26233;51.894;10.192;2024-02-16T09:54:15;17.60;48.60
40534;DHT22;26233;51.894;10.192;2024-02-16T09:56:43;17.60;48.40
40534;DHT22;26233;51.894;10.192;2024-02-16T09:59:12;17.60;48.30
40534;DHT22;26233;51.894;10.192;2024-02-16T10:01:42;17.60;48.20
40534;DHT22;26233;51.894;10.192;2024-02-16T10:04:10;17.60;47.90
40534;DHT22;26233;51.894;10.192;2024-02-16T10:06:47;17.50;47.80
40534;DHT22;26233;51.894;10.192;2024-02-16T10:09:25;17.50;47.60
40534;DHT22;26233;51.894;10.192;2024-02-16T10:11:52;17.40;47.50
40534;DHT22;26233;51.894;10.192;2024-02-16T10:14:23;17.30;47.60
40534;DHT22;26233;51.894;10.192;2024-02-16T10:17:00;17.30;47.70
40534;DHT22;26233;51.894;10.192;2024-02-16T10:19:29;17.20;47.30
40534;DHT22;26233;51.894;10.192;2024-02-16T10:22:08;17.10;47.60
40534;DHT22;26233;51.894;10.192;2024-02-16T10:24:36;17.10;47.60
40534;DHT22;26233;51.894;10.192;2024-02-16T10:27:04;17.10;47.90
40534;DHT22;26233;51.894;10.192;2024-02-16T10:29:34;17.10;47.90
40534;DHT22;26233;51.894;10.192;2024-02-16T10:32:02;17.20;48.20
40534;DHT22;26233;51.894;10.192;2024-02-16T10:34:31;17.30;48.60
40534;DHT22;26233;51.894;10.192;2024-02-16T10:37:00;17.50;48.70
40534;DHT22;26233;51.894;10.192;2024-02-16T10:39:30;17.60;48.70
40534;DHT22;26233;51.894;10.192;2024-02-16T10:41:58;17.70;48.30
40534;DHT22;26233;51.894;10.192;2024-02-16T10:44:28;17.80;48.20
40534;DHT22;26233;51.894;10.192;2024-02-16T10:46:55;17.90;48.30
40534;DHT22;26233;51.894;10.192;2024-02-16T10:49:24;18.00;48.30
40534;DHT22;26233;51.894;10.192;2024-02-16T10:51:58;18.10;48.10
40534;DHT22;26233;51.894;10.192;2024-02-16T10:54:30;18.10;47.60
40534;DHT22;26233;51.894;10.192;2024-02-16T10:57:00;18.10;47.60
40534;DHT22;26233;51.894;10.192;2024-02-16T10:59:37;18.10;47.50
40534;DHT22;26233;51.894;10.192;2024-02-16T11:02:10;18.00;47.10
40534;DHT22;26233;51.894;10.192;2024-02-16T11:04:38;18.00;47.20
40534;DHT22;26233;51.894;10.192;2024-02-16T11:07:11;17.90;47.20
40534;DHT22;26233;51.894;10.192;2024-02-16T11:09:41;17.90;47.30
40534;DHT22;26233;51.894;10.192;2024-02-16T11:12:12;17.90;47.70
40534;DHT22;26233;51.894;10.192;2024-02-16T11:14:42;18.00;48.00
40534;DHT22;26233;51.894;10.192;2024-02-16T11:17:11;18.10;48.20
40534;DHT22;26233;51.894;10.192;2024-02-16T11:19:40;18.20;48.50
40534;DHT22;26233;51.894;10.192;2024-02-16T11:22:09;18.40;48.50
40534;DHT22;26233;51.894;10.192;2024-02-16T11:24:42;18.60;48.60
40534;DHT22;26233;51.894;10.192;2024-02-16T11:27:12;18.80;48.40
40534;DHT22;26233;51.894;10.192;2024-02-16T11:29:41;19.00;48.60
40534;DHT22;26233;51.894;10.192;2024-02-16T11:32:08;19.10;48.20
40534;DHT22;26233;51.894;10.192;2024-02-16T11:34:35;19.20;48.40
40534;DHT22;26233;51.894;10.192;2024-02-16T11:37:04;19.50;48.80
40534;DHT22;26233;51.894;10.192;2024-02-16T11:39:31;19.70;49.00
40534;DHT22;26233;51.894;10.192;2024-02-16T11:42:04;19.90;48.90
40534;DHT22;26233;51.894;10.192;2024-02-16T11:44:34;20.10;48.00
40534;DHT22;26233;51.894;10.192;2024-02-16T11:47:02;20.30;48.30
40534;DHT22;26233;51.894;10.192;2024-02-16T11:49:30;20.40;48.50
40534;DHT22;26233;51.894;10.192;2024-02-16T11:51:59;20.50;47.50
40534;DHT22;26233;51.894;10.192;2024-02-16T11:54:27;20.40;47.00
40534;DHT22;26233;51.894;10.192;2024-02-16T11:56:55;20.30;46.50
40534;DHT22;26233;51.894;10.192;2024-02-16T11:59:24;20.20;46.00
40534;DHT22;26233;51.894;10.192;2024-02-16T12:01:53;20.00;45.80
40534;DHT22;26233;51.894;10.192;2024-02-16T12:04:25;19.90;45.90
40534;DHT22;26233;51.894;10.192;2024-02-16T12:06:55;19.70;45.90
40534;DHT22;26233;51.894;10.192;2024-02-16T12:09:23;19.60;46.00
40534;DHT22;26233;51.894;10.192;2024-02-16T12:11:52;19.50;46.10
40534;DHT22;26233;51.894;10.192;2024-02-16T12:14:22;19.40;46.10
40534;DHT22;26233;51.894;10.192;2024-02-16T12:16:52;19.20;45.90
40534;DHT22;26233;51.894;10.192;2024-02-16T12:19:23;19.10;45.80
40534;DHT22;26233;51.894;10.192;2024-02-16T12:21:51;18.90;45.70
40534;DHT22;26233;51.894;10.192;2024-02-16T12:24:19;18.70;45.50
40534;DHT22;26233;51.894;10.192;2024-02-16T12:26:47;18.60;45.60
40534;DHT22;26233;51.894;10.192;2024-02-16T12:29:15;18.50;45.80
40534;DHT22;26233;51.894;10.192;2024-02-16T12:31:44;18.30;45.90
40534;DHT22;26233;51.894;10.192;2024-02-16T12:34:14;18.20;46.10
40534;DHT22;26233;51.894;10.192;2024-02-16T12:36:42;18.10;46.20
40534;DHT22;26233;51.894;10.192;2024-02-16T12:39:09;18.10;46.40
40534;DHT22;26233;51.894;10.192;2024-02-16T12:41:38;18.00;46.60
40534;DHT22;26233;51.894;10.192;2024-02-16T12:44:07;18.00;46.80
40534;DHT22;26233;51.894;10.192;2024-02-16T12:46:34;18.00;46.80
40534;DHT22;26233;51.894;10.192;2024-02-16T12:49:02;18.10;47.00
40534;DHT22;26233;51.894;10.192;2024-02-16T12:51:30;18.10;47.00
40534;DHT22;26233;51.894;10.192;2024-02-16T12:53:57;18.10;47.10
40534;DHT22;26233;51.894;10.192;2024-02-16T12:56:26;18.20;47.20
40534;DHT22;26233;51.894;10.192;2024-02-16T12:58:53;18.20;47.20
40534;DHT22;26233;51.894;10.192;2024-02-16T13:01:20;18.30;47.20
40534;DHT22;26233;51.894;10.192;2024-02-16T13:03:48;18.30;47.20
40534;DHT22;26233;51.894;10.192;2024-02-16T13:06:16;18.30;47.10
40534;DHT22;26233;51.894;10.192;2024-02-16T13:08:44;18.40;47.30
40534;DHT22;26233;51.894;10.192;2024-02-16T13:11:11;18.40;47.40
40534;DHT22;26233;51.894;10.192;2024-02-16T13:13:38;18.50;48.00
40534;DHT22;26233;51.894;10.192;2024-02-16T13:16:06;18.60;47.40
40534;DHT22;26233;51.894;10.192;2024-02-16T13:18:34;18.70;47.40
40534;DHT22;26233;51.894;10.192;2024-02-16T13:21:01;18.70;47.40
40534;DHT22;26233;51.894;10.192;2024-02-16T13:23:30;18.70;47.30
40534;DHT22;26233;51.894;10.192;2024-02-16T13:25:57;18.80;47.20
40534;DHT22;26233;51.894;10.192;2024-02-16T13:28:24;18.80;47.10
40534;DHT22;26233;51.894;10.192;2024-02-16T13:30:52;18.80;47.00
40534;DHT22;26233;51.894;10.192;2024-02-16T13:33:19;18.80;47.00
40534;DHT22;26233;51.894;10.192;2024-02-16T13:35:46;18.70;47.00
40534;DHT22;26233;51.894;10.192;2024-02-16T13:38:13;18.70;47.00
40534;DHT22;26233;51.894;10.192;2024-02-16T13:40:42;18.60;47.10
40534;DHT22;26233;51.894;10.192;2024-02-16T13:43:09;18.60;47.20
40534;DHT22;26233;51.894;10.192;2024-02-16T13:45:48;18.50;47.20
40534;DHT22;26233;51.894;10.192;2024-02-16T13:48:17;18.50;47.20
40534;DHT22;26233;51.894;10.192;2024-02-16T13:50:46;18.40;47.20
40534;DHT22;26233;51.894;10.192;2024-02-16T13:53:14;18.40;47.30
40534;DHT22;26233;51.894;10.192;2024-02-16T13:55:43;18.40;47.40
40534;DHT22;26233;51.894;10.192;2024-02-16T13:58:11;18.30;47.40
40534;DHT22;26233;51.894;10.192;2024-02-16T14:00:38;18.30;47.40
40534;DHT22;26233;51.894;10.192;2024-02-16T14:03:06;18.30;47.40
40534;DHT22;26233;51.894;10.192;2024-02-16T14:05:36;18.20;47.20
40534;DHT22;26233;51.894;10.192;2024-02-16T14:08:05;18.20;47.30
40534;DHT22;26233;51.894;10.192;2024-02-16T14:10:33;18.10;47.20
40534;DHT22;26233;51.894;10.192;2024-02-16T14:13:01;18.00;47.20
40534;DHT22;26233;51.894;10.192;2024-02-16T14:15:29;18.00;47.30
40534;DHT22;26233;51.894;10.192;2024-02-16T14:17:56;18.00;47.40
40534;DHT22;26233;51.894;10.192;2024-02-16T14:20:24;18.00;47.50
40534;DHT22;26233;51.894;10.192;2024-02-16T14:22:52;17.90;47.50
40534;DHT22;26233;51.894;10.192;2024-02-16T14:25:19;17.90;47.50
40534;DHT22;26233;51.894;10.192;2024-02-16T14:27:47;17.90;47.50
40534;DHT22;26233;51.894;10.192;2024-02-16T14:30:15;17.80;47.50
40534;DHT22;26233;51.894;10.192;2024-02-16T14:32:42;17.80;47.60
40534;DHT22;26233;51.894;10.192;2024-02-16T14:35:10;17.80;47.70
40534;DHT22;26233;51.894;10.192;2024-02-16T14:37:37;17.80;47.70
40534;DHT22;26233;51.894;10.192;2024-02-16T14:40:06;17.80;47.70
40534;DHT22;26233;51.894;10.192;2024-02-16T14:42:35;17.80;47.70
40534;DHT22;26233;51.894;10.192;2024-02-16T14:45:04;17.70;47.60
40534;DHT22;26233;51.894;10.192;2024-02-16T14:47:36;17.70;47.60
40534;DHT22;26233;51.894;10.192;2024-02-16T14:50:04;17.70;47.70
40534;DHT22;26233;51.894;10.192;2024-02-16T14:52:33;17.60;47.60
40534;DHT22;26233;51.894;10.192;2024-02-16T14:55:00;17.60;47.70
40534;DHT22;26233;51.894;10.192;2024-02-16T14:57:28;17.60;47.80
40534;DHT22;26233;51.894;10.192;2024-02-16T14:59:55;17.50;47.70
40534;DHT22;26233;51.894;10.192;2024-02-16T15:02:23;17.50;47.80
40534;DHT22;26233;51.894;10.192;2024-02-16T15:04:52;17.50;47.80
40534;DHT22;26233;51.894;10.192;2024-02-16T15:07:19;17.40;47.90
40534;DHT22;26233;51.894;10.192;2024-02-16T15:09:47;17.40;47.90
40534;DHT22;26233;51.894;10.192;2024-02-16T15:12:14;17.30;47.90
40534;DHT22;26233;51.894;10.192;2024-02-16T15:14:44;17.30;48.00
40534;DHT22;26233;51.894;10.192;2024-02-16T15:17:11;17.30;48.00
40534;DHT22;26233;51.894;10.192;2024-02-16T15:19:39;17.30;48.10